createdAt,value
2023-02-12T00:02:16.772Z,29.80
2023-02-12T00:04:47.133Z,27.20
2023-02-12T00:07:20.170Z,27.80
2023-02-12T00:09:50.492Z,23.58
2023-02-12T00:12:20.782Z,30.03
2023-02-12T00:14:51.251Z,26.80
2023-02-12T00:17:21.651Z,25.15
2023-02-12T00:19:51.941Z,28.80
2023-02-12T00:22:24.853Z,29.20
2023-02-12T00:24:55.143Z,31.90
2023-02-12T00:27:25.836Z,31.10
2023-02-12T00:29:56.205Z,36.60
2023-02-12T00:32:26.566Z,32.37
2023-02-12T00:34:56.856Z,33.47
2023-02-12T00:37:29.757Z,30.30
2023-02-12T00:40:00.065Z,30.42
2023-02-12T00:42:30.404Z,32.63
2023-02-12T00:45:00.673Z,33.70
2023-02-12T00:47:33.732Z,34.17
2023-02-12T00:50:04.038Z,31.43
2023-02-12T00:52:37.057Z,39.23
2023-02-12T00:55:09.332Z,36.30
2023-02-12T00:57:39.730Z,36.58
2023-02-12T01:00:12.326Z,35.33
2023-02-12T01:02:42.634Z,36.20
2023-02-12T01:05:13.107Z,34.87
2023-02-12T01:07:46.186Z,37.83
2023-02-12T01:10:17.435Z,38.10
2023-02-12T01:12:47.772Z,35.67
2023-02-12T01:15:18.354Z,35.90
2023-02-12T01:17:48.956Z,37.55
2023-02-12T01:20:24.411Z,39.25
2023-02-12T01:22:58.890Z,37.80
2023-02-12T01:25:29.224Z,42.88
2023-02-12T01:27:59.752Z,42.15
2023-02-12T01:30:30.080Z,38.83
2023-02-12T01:33:00.742Z,36.20
2023-02-12T01:35:31.121Z,36.05
2023-02-12T01:38:04.151Z,37.00
2023-02-12T01:40:34.558Z,39.35
2023-02-12T01:43:05.488Z,33.35
2023-02-12T01:45:56.843Z,36.50
2023-02-12T01:48:30.993Z,37.63
2023-02-12T01:51:02.621Z,39.92
2023-02-12T01:53:41.185Z,39.65
2023-02-12T01:56:12.964Z,36.50
2023-02-12T01:58:47.093Z,39.05
2023-02-12T02:01:24.666Z,38.92
2023-02-12T02:04:02.477Z,46.50
2023-02-12T02:06:36.941Z,44.58
2023-02-12T02:09:10.145Z,40.72
2023-02-12T02:11:52.838Z,45.22
2023-02-12T02:14:35.386Z,41.67
2023-02-12T02:17:34.770Z,46.78
2023-02-12T02:20:45.741Z,45.13
2023-02-12T02:23:43.038Z,40.45
2023-02-12T02:26:35.917Z,49.80
2023-02-12T02:29:26.306Z,44.17
2023-02-12T02:32:06.584Z,43.10
2023-02-12T02:34:44.798Z,45.77
2023-02-12T02:37:22.040Z,47.22
2023-02-12T02:39:56.802Z,41.75
2023-02-12T02:42:33.020Z,56.75
2023-02-12T02:45:11.489Z,44.25
2023-02-12T02:47:49.980Z,41.67
2023-02-12T02:50:24.416Z,48.63
2023-02-12T02:53:00.459Z,46.25
2023-02-12T02:55:35.677Z,44.42
2023-02-12T02:58:13.440Z,60.47
2023-02-12T03:00:49.064Z,42.40
2023-02-12T03:03:27.592Z,44.42
2023-02-12T03:06:05.535Z,49.47
2023-02-12T03:08:41.968Z,45.30
2023-02-12T03:11:21.235Z,43.22
2023-02-12T03:13:57.660Z,51.80
2023-02-12T03:16:31.206Z,50.35
2023-02-12T03:19:11.541Z,47.00
2023-02-12T03:21:49.118Z,37.27
2023-02-12T03:24:26.117Z,51.95
2023-02-12T03:27:10.651Z,45.97
2023-02-12T03:29:41.193Z,46.35
2023-02-12T03:32:27.190Z,43.80
2023-02-12T03:35:13.235Z,50.88
2023-02-12T03:37:54.409Z,42.45
2023-02-12T03:40:32.089Z,45.13
2023-02-12T03:43:10.025Z,46.72
2023-02-12T03:45:49.540Z,39.70
2023-02-12T03:48:28.883Z,45.40
2023-02-12T03:51:07.377Z,51.17
2023-02-12T03:53:37.694Z,43.63
2023-02-12T03:56:14.108Z,42.77
2023-02-12T03:58:46.778Z,49.60
2023-02-12T04:01:17.912Z,48.55
2023-02-12T04:06:29.182Z,48.95
2023-02-12T04:09:04.354Z,49.47
2023-02-12T04:11:48.050Z,54.58
2023-02-12T04:14:30.226Z,54.05
2023-02-12T04:17:11.627Z,58.53
2023-02-12T04:20:04.472Z,52.17
2023-02-12T04:22:53.264Z,52.35
2023-02-12T04:25:41.891Z,52.22
2023-02-12T04:28:21.224Z,61.92
2023-02-12T04:31:02.022Z,61.75
2023-02-12T04:33:40.584Z,66.65
2023-02-12T04:36:17.261Z,70.30
2023-02-12T04:38:55.513Z,54.70
2023-02-12T04:41:26.084Z,57.10
2023-02-12T04:43:56.868Z,53.38
2023-02-12T04:46:27.303Z,52.28
2023-02-12T04:49:01.415Z,43.72
2023-02-12T04:51:31.916Z,49.28
2023-02-12T04:54:04.871Z,48.67
2023-02-12T04:56:35.224Z,47.63
2023-02-12T04:59:06.131Z,48.37
2023-02-12T05:01:38.460Z,52.67
2023-02-12T05:04:10.648Z,64.28
2023-02-12T05:06:42.558Z,51.17
2023-02-12T05:09:19.422Z,60.97
2023-02-12T05:11:49.916Z,63.10
2023-02-12T05:14:20.370Z,102.22
2023-02-12T05:16:50.812Z,54.63
2023-02-12T05:19:21.083Z,67.80
2023-02-12T05:21:53.832Z,74.57
2023-02-12T05:24:26.977Z,69.97
2023-02-12T05:26:57.364Z,76.90
2023-02-12T05:29:27.684Z,75.33
2023-02-12T05:31:58.214Z,101.23
2023-02-12T05:34:28.644Z,56.72
2023-02-12T05:36:58.949Z,80.27
2023-02-12T05:39:31.925Z,71.83
2023-02-12T05:42:02.201Z,81.93
2023-02-12T05:44:32.461Z,63.47
2023-02-12T05:47:02.776Z,62.90
2023-02-12T05:49:33.491Z,58.77
2023-02-12T05:52:03.855Z,71.65
2023-02-12T05:54:37.066Z,62.95
2023-02-12T05:57:07.390Z,72.38
2023-02-12T05:59:37.668Z,52.27
2023-02-12T06:02:08.020Z,59.70
2023-02-12T06:04:38.311Z,60.20
2023-02-12T06:07:08.890Z,59.03
2023-02-12T06:09:41.820Z,65.97
2023-02-12T06:12:12.110Z,52.00
2023-02-12T06:14:44.738Z,44.50
2023-02-12T06:17:18.038Z,42.88
2023-02-12T06:19:48.337Z,61.40
2023-02-12T06:22:18.628Z,51.00
2023-02-12T06:24:51.618Z,55.57
2023-02-12T06:27:21.915Z,56.13
2023-02-12T06:29:52.352Z,63.70
2023-02-12T06:32:22.692Z,53.07
2023-02-12T06:34:53.070Z,66.60
2023-02-12T06:37:23.367Z,55.53
2023-02-12T06:39:56.346Z,118.53
2023-02-12T06:42:26.621Z,62.10
2023-02-12T06:44:56.986Z,54.07
2023-02-12T06:47:27.433Z,51.37
2023-02-12T06:49:57.915Z,47.03
2023-02-12T06:52:28.289Z,47.72
2023-02-12T06:55:01.242Z,49.93
2023-02-12T06:57:32.662Z,41.15
2023-02-12T07:00:02.993Z,43.65
2023-02-12T07:02:33.370Z,62.90
2023-02-12T07:05:03.725Z,59.27
2023-02-12T07:07:34.040Z,43.77
2023-02-12T07:10:08.854Z,55.10
2023-02-12T07:12:39.217Z,50.67
2023-02-12T07:15:10.897Z,44.00
2023-02-12T07:17:41.345Z,70.93
2023-02-12T07:20:13.412Z,51.08
2023-02-12T07:22:43.719Z,55.78
2023-02-12T07:25:16.601Z,88.57
2023-02-12T07:27:46.929Z,68.75
2023-02-12T07:30:19.827Z,95.10
2023-02-12T07:32:50.184Z,68.93
2023-02-12T07:35:20.716Z,65.93
2023-02-12T07:37:51.084Z,76.32
2023-02-12T07:40:24.178Z,86.47
2023-02-12T07:42:58.643Z,85.85
2023-02-12T07:45:29.173Z,81.50
2023-02-12T07:47:59.596Z,94.15
2023-02-12T07:50:30.104Z,110.80
2023-02-12T07:53:01.256Z,93.00
2023-02-12T07:55:34.232Z,109.38
2023-02-12T07:58:04.665Z,169.85
2023-02-12T08:00:35.147Z,233.23
2023-02-12T08:03:05.699Z,78.57
2023-02-12T08:05:36.097Z,174.43
2023-02-12T08:08:06.553Z,142.60
2023-02-12T08:10:39.737Z,76.95
2023-02-12T08:13:10.054Z,80.15
2023-02-12T08:15:40.388Z,63.97
2023-02-12T08:18:10.889Z,64.72
2023-02-12T08:20:41.256Z,74.03
2023-02-12T08:23:11.550Z,59.77
2023-02-12T08:25:44.419Z,98.47
2023-02-12T08:28:14.725Z,134.25
2023-02-12T08:30:45.239Z,54.70
2023-02-12T08:33:15.654Z,47.72
2023-02-12T08:35:45.998Z,39.10
2023-02-12T08:38:16.411Z,32.97
2023-02-12T08:40:49.400Z,37.28
2023-02-12T08:43:19.706Z,33.65
2023-02-12T08:45:50.046Z,26.77
2023-02-12T08:48:20.767Z,31.87
2023-02-12T08:50:51.251Z,29.52
2023-02-12T08:53:21.680Z,33.30
2023-02-12T08:55:55.090Z,29.40
2023-02-12T08:58:25.608Z,25.90
2023-02-12T09:00:56.099Z,29.67
2023-02-12T09:03:26.990Z,35.75
2023-02-12T09:05:57.760Z,26.88
2023-02-12T09:08:28.343Z,30.65
2023-02-12T09:11:01.447Z,39.33
2023-02-12T09:13:31.778Z,28.33
2023-02-12T09:16:05.508Z,30.88
2023-02-12T09:18:36.830Z,33.97
2023-02-12T09:21:09.837Z,23.88
2023-02-12T09:23:41.371Z,26.05
2023-02-12T09:26:18.049Z,29.92
2023-02-12T09:28:48.763Z,27.33
2023-02-12T09:31:26.560Z,22.00
2023-02-12T09:34:01.153Z,26.70
2023-02-12T09:36:31.719Z,20.35
2023-02-12T09:39:04.073Z,26.13
2023-02-12T09:42:12.843Z,21.75
2023-02-12T09:44:50.316Z,42.33
2023-02-12T09:47:27.076Z,32.80
2023-02-12T09:50:15.106Z,22.67
2023-02-12T09:52:45.908Z,18.33
2023-02-12T09:55:19.809Z,17.85
2023-02-12T09:57:54.898Z,18.55
2023-02-12T10:00:31.769Z,18.08
2023-02-12T10:03:07.350Z,19.80
2023-02-12T10:05:44.383Z,20.42
2023-02-12T10:08:31.464Z,19.63
2023-02-12T10:11:19.017Z,17.73
2023-02-12T10:14:06.079Z,13.55
2023-02-12T10:16:55.698Z,16.98
2023-02-12T10:19:41.814Z,16.65
2023-02-12T10:22:24.435Z,14.65
2023-02-12T10:25:11.174Z,19.55
2023-02-12T10:27:46.540Z,19.58
2023-02-12T10:30:27.124Z,33.53
2023-02-12T10:33:05.198Z,31.58
2023-02-12T10:35:38.049Z,33.88
2023-02-12T10:38:18.044Z,61.13
2023-02-12T10:40:50.422Z,54.55
2023-02-12T10:43:20.790Z,104.97
2023-02-12T10:45:54.053Z,94.22
2023-02-12T10:48:27.318Z,109.45
2023-02-12T10:51:39.196Z,98.45
2023-02-12T10:54:41.644Z,62.72
2023-02-12T10:57:20.783Z,87.22
2023-02-12T10:59:53.592Z,194.65
2023-02-12T11:02:30.633Z,59.03
2023-02-12T11:05:03.660Z,65.15
2023-02-12T11:07:51.307Z,33.42
2023-02-12T11:10:32.067Z,35.00
2023-02-12T11:13:03.511Z,42.00
2023-02-12T11:15:41.767Z,30.88
2023-02-12T11:18:26.438Z,25.98
2023-02-12T11:21:00.878Z,18.17
2023-02-12T11:23:34.500Z,19.73
2023-02-12T11:26:07.614Z,20.75
2023-02-12T11:28:40.475Z,21.60
2023-02-12T11:31:26.251Z,22.42
2023-02-12T11:34:19.807Z,26.67
2023-02-12T11:36:53.591Z,22.00
2023-02-12T11:39:27.609Z,19.40
2023-02-12T11:41:59.993Z,20.98
2023-02-12T11:44:35.702Z,22.13
2023-02-12T11:47:12.258Z,23.45
2023-02-12T11:49:52.472Z,21.48
2023-02-12T11:52:26.646Z,19.10
2023-02-12T11:55:01.466Z,17.75
2023-02-12T11:57:47.870Z,22.55
2023-02-12T12:00:24.107Z,16.63
2023-02-12T12:03:02.601Z,16.25
2023-02-12T12:05:41.514Z,16.85
2023-02-12T12:08:24.457Z,44.63
2023-02-12T12:11:02.994Z,36.72
2023-02-12T12:13:40.049Z,23.73
2023-02-12T12:16:28.995Z,18.98
2023-02-12T12:19:16.843Z,17.75
2023-02-12T12:21:58.791Z,19.15
2023-02-12T12:24:41.919Z,21.25
2023-02-12T12:27:47.893Z,22.65
2023-02-12T12:30:26.989Z,20.00
2023-02-12T12:33:00.905Z,21.80
2023-02-12T12:35:47.010Z,27.80
2023-02-12T12:38:35.139Z,21.40
2023-02-12T12:41:13.455Z,28.40
2023-02-12T12:44:02.142Z,23.15
2023-02-12T12:47:04.776Z,23.75
2023-02-12T12:49:53.933Z,23.75
2023-02-12T12:52:48.823Z,26.40
2023-02-12T12:55:57.740Z,35.03
2023-02-12T12:58:41.765Z,37.38
2023-02-12T13:01:48.179Z,46.22
2023-02-12T13:04:55.705Z,35.60
2023-02-12T13:07:49.357Z,30.05
2023-02-12T13:10:36.794Z,30.77
2023-02-12T13:13:29.566Z,36.70
2023-02-12T13:16:06.650Z,30.65
2023-02-12T13:18:52.972Z,31.45
2023-02-12T13:21:40.044Z,29.52
2023-02-12T13:24:24.733Z,30.63
2023-02-12T13:27:00.793Z,30.10
2023-02-12T13:29:38.153Z,24.13
2023-02-12T13:32:17.398Z,34.33
2023-02-12T13:34:48.489Z,22.70
2023-02-12T13:37:23.753Z,23.80
2023-02-12T13:39:56.192Z,20.95
2023-02-12T13:42:48.474Z,22.95
2023-02-12T13:45:33.174Z,21.92
2023-02-12T13:48:35.855Z,21.50
2023-02-12T13:51:17.619Z,20.08
2023-02-12T13:54:07.298Z,22.20
2023-02-12T13:56:44.963Z,24.63
2023-02-12T13:59:49.372Z,23.48
2023-02-12T14:02:46.529Z,22.13
2023-02-12T14:05:34.966Z,23.83
2023-02-12T14:08:09.423Z,24.48
2023-02-12T14:10:43.518Z,25.40
2023-02-12T14:13:25.376Z,27.92
2023-02-12T14:16:01.227Z,27.40
2023-02-12T14:18:35.852Z,27.83
2023-02-12T14:21:45.679Z,26.92
2023-02-12T14:24:53.092Z,31.63
2023-02-12T14:27:47.951Z,31.15
2023-02-12T14:30:40.366Z,30.10
2023-02-12T14:33:31.856Z,28.70
2023-02-12T14:39:32.407Z,32.30
2023-02-12T14:45:36.780Z,29.25
2023-02-12T14:48:08.812Z,32.13
2023-02-12T14:50:52.257Z,37.05
2023-02-12T14:53:40.774Z,31.40
2023-02-12T14:56:12.750Z,32.28
2023-02-12T14:58:43.396Z,32.60
2023-02-12T15:01:13.923Z,27.60
2023-02-12T15:03:50.135Z,34.67
2023-02-12T15:06:27.818Z,31.80
2023-02-12T15:09:06.148Z,29.08
2023-02-12T15:11:46.509Z,29.20
2023-02-12T15:14:23.190Z,31.93
2023-02-12T15:17:00.193Z,28.35
2023-02-12T15:19:43.168Z,28.33
2023-02-12T15:22:29.989Z,26.38
2023-02-12T15:25:18.246Z,27.75
2023-02-12T15:27:52.493Z,27.10
2023-02-12T15:30:27.049Z,30.20
2023-02-12T15:33:00.455Z,31.20
2023-02-12T15:35:33.552Z,28.65
2023-02-12T15:38:07.928Z,34.17
2023-02-12T15:40:38.555Z,33.92
2023-02-12T15:43:20.882Z,44.17
2023-02-12T15:45:55.975Z,48.28
2023-02-12T15:48:34.242Z,39.95
2023-02-12T15:51:11.985Z,39.60
2023-02-12T15:53:45.702Z,37.50
2023-02-12T15:56:19.107Z,32.92
2023-02-12T15:58:52.561Z,33.50
2023-02-12T16:01:25.597Z,27.95
2023-02-12T16:03:58.508Z,37.08
2023-02-12T16:06:34.353Z,32.75
2023-02-12T16:09:12.442Z,30.58
2023-02-12T16:11:46.287Z,32.30
2023-02-12T16:14:26.013Z,34.00
2023-02-12T16:16:58.944Z,34.63
2023-02-12T16:19:33.791Z,33.22
2023-02-12T16:22:11.646Z,33.88
2023-02-12T16:24:50.642Z,30.98
2023-02-12T16:27:24.611Z,36.80
2023-02-12T16:29:57.450Z,37.45
2023-02-12T16:32:39.319Z,30.13
2023-02-12T16:35:28.814Z,31.88
2023-02-12T16:38:05.256Z,35.55
2023-02-12T16:40:39.757Z,31.08
2023-02-12T16:43:29.449Z,32.63
2023-02-12T16:46:08.729Z,29.30
2023-02-12T16:48:44.812Z,35.95
2023-02-12T16:51:27.565Z,37.65
2023-02-12T16:54:00.310Z,32.97
2023-02-12T16:56:38.650Z,35.58
2023-02-12T16:59:10.098Z,32.60
2023-02-12T17:01:40.557Z,39.33
2023-02-12T17:04:17.583Z,40.13
2023-02-12T17:06:47.920Z,41.22
2023-02-12T17:09:18.274Z,38.03
2023-02-12T17:11:51.251Z,38.73
2023-02-12T17:14:23.504Z,40.70
2023-02-12T17:16:54.310Z,38.22
2023-02-12T17:19:24.679Z,34.70
2023-02-12T17:21:55.022Z,35.23
2023-02-12T17:24:29.449Z,41.80
2023-02-12T17:27:02.634Z,34.53
2023-02-12T17:29:33.588Z,40.28
2023-02-12T17:32:04.157Z,41.65
2023-02-12T17:34:47.630Z,35.92
2023-02-12T17:37:18.637Z,35.90
2023-02-12T17:39:49.260Z,38.28
2023-02-12T17:42:22.326Z,37.47
2023-02-12T17:44:52.708Z,37.53
2023-02-12T17:47:23.364Z,38.00
2023-02-12T17:49:53.870Z,45.55
2023-02-12T17:52:24.299Z,41.17
2023-02-12T17:54:54.664Z,41.45
2023-02-12T17:57:27.724Z,36.47
2023-02-12T17:59:58.170Z,42.72
2023-02-12T18:02:28.739Z,36.58
2023-02-12T18:04:59.218Z,40.45
2023-02-12T18:07:29.585Z,37.45
2023-02-12T18:09:59.930Z,38.30
2023-02-12T18:12:34.124Z,39.93
2023-02-12T18:15:07.895Z,47.95
2023-02-12T18:17:38.587Z,45.70
2023-02-12T18:20:11.483Z,40.53
2023-02-12T18:22:41.887Z,38.30
2023-02-12T18:25:12.336Z,36.63
2023-02-12T18:27:45.456Z,33.92
2023-02-12T18:30:18.113Z,35.58
2023-02-12T18:32:49.028Z,43.85
2023-02-12T18:35:19.693Z,40.33
2023-02-12T18:37:50.431Z,33.10
2023-02-12T18:40:21.226Z,39.80
2023-02-12T18:42:54.214Z,39.75
2023-02-12T18:45:24.561Z,51.17
2023-02-12T18:47:54.853Z,37.23
2023-02-12T18:50:25.145Z,33.25
2023-02-12T18:52:55.450Z,37.90
2023-02-12T18:55:25.838Z,42.70
2023-02-12T18:57:58.830Z,39.92
2023-02-12T19:00:29.503Z,49.42
2023-02-12T19:02:59.910Z,51.10
2023-02-12T19:05:30.380Z,80.35
2023-02-12T19:08:00.776Z,67.38
2023-02-12T19:10:31.436Z,64.72
2023-02-12T19:13:04.417Z,57.70
2023-02-12T19:15:34.833Z,64.72
2023-02-12T19:18:05.178Z,63.78
2023-02-12T19:20:36.018Z,66.80
2023-02-12T19:23:06.460Z,59.83
2023-02-12T19:25:42.810Z,51.37
2023-02-12T19:28:16.350Z,57.70
2023-02-12T19:30:46.687Z,56.72
2023-02-12T19:33:17.088Z,58.35
2023-02-12T19:35:47.403Z,60.60
2023-02-12T19:38:18.995Z,64.47
2023-02-12T19:40:49.316Z,75.72
2023-02-12T19:43:22.266Z,74.03
2023-02-12T19:45:52.613Z,67.03
2023-02-12T19:48:23.411Z,58.40
2023-02-12T19:50:53.899Z,54.90
2023-02-12T19:53:24.428Z,48.92
2023-02-12T19:55:54.872Z,53.55
2023-02-12T19:58:27.904Z,68.38
2023-02-12T20:00:58.206Z,56.92
2023-02-12T20:03:29.225Z,64.60
2023-02-12T20:06:04.387Z,56.88
2023-02-12T20:08:36.319Z,66.82
2023-02-12T20:11:09.776Z,62.42
2023-02-12T20:13:42.829Z,70.30
2023-02-12T20:16:16.127Z,80.20
2023-02-12T20:18:47.498Z,87.72
2023-02-12T20:21:21.168Z,82.50
2023-02-12T20:23:51.669Z,77.60
2023-02-12T20:26:22.532Z,82.93
2023-02-12T20:28:55.553Z,70.72
2023-02-12T20:31:31.073Z,75.20
2023-02-12T20:34:04.977Z,65.50
2023-02-12T20:36:37.192Z,70.18
2023-02-12T20:39:10.470Z,64.47
2023-02-12T20:41:41.094Z,67.15
2023-02-12T20:44:20.364Z,74.28
2023-02-12T20:46:55.720Z,62.28
2023-02-12T20:49:28.391Z,64.97
2023-02-12T20:51:58.852Z,72.50
2023-02-12T20:54:29.244Z,60.83
2023-02-12T20:56:59.594Z,70.43
2023-02-12T20:59:32.572Z,70.50
2023-02-12T21:02:03.115Z,72.47
2023-02-12T21:04:33.585Z,74.32
2023-02-12T21:07:03.952Z,71.10
2023-02-12T21:09:34.295Z,115.73
2023-02-12T21:12:04.624Z,78.27
2023-02-12T21:14:37.601Z,77.10
2023-02-12T21:17:07.963Z,67.88
2023-02-12T21:19:38.328Z,67.70
2023-02-12T21:22:08.775Z,66.57
2023-02-12T21:24:39.166Z,62.17
2023-02-12T21:27:10.986Z,63.40
2023-02-12T21:29:43.958Z,63.13
2023-02-12T21:32:14.320Z,78.93
2023-02-12T21:34:45.409Z,75.10
2023-02-12T21:37:16.916Z,71.47
2023-02-12T21:39:47.320Z,72.80
2023-02-12T21:42:17.755Z,71.70
2023-02-12T21:44:50.796Z,65.75
2023-02-12T21:47:21.141Z,72.63
2023-02-12T21:49:52.147Z,64.57
2023-02-12T21:52:22.575Z,59.15
2023-02-12T21:54:53.678Z,71.32
2023-02-12T21:59:56.585Z,73.28
2023-02-12T22:02:27.000Z,63.92
2023-02-12T22:04:57.644Z,61.03
2023-02-12T22:07:28.106Z,57.63
2023-02-12T22:09:59.132Z,59.70
2023-02-12T22:12:32.448Z,76.75
2023-02-12T22:15:05.427Z,73.03
2023-02-12T22:17:36.252Z,76.43
2023-02-12T22:20:07.165Z,79.53
2023-02-12T22:22:37.603Z,89.88
2023-02-12T22:25:09.214Z,122.82
2023-02-12T22:27:39.582Z,128.45
2023-02-12T22:30:14.195Z,114.82
2023-02-12T22:32:44.786Z,120.70
2023-02-12T22:35:15.407Z,105.80
2023-02-12T22:37:45.902Z,117.57
2023-02-12T22:40:18.301Z,134.90
2023-02-12T22:42:48.673Z,140.27
2023-02-12T22:45:21.812Z,116.72
2023-02-12T22:47:52.156Z,298.52
2023-02-12T22:50:22.587Z,122.03
2023-02-12T22:52:52.962Z,219.77
2023-02-12T22:55:23.273Z,154.57
2023-02-12T22:57:54.067Z,160.43
2023-02-12T23:00:27.419Z,95.47
2023-02-12T23:02:57.724Z,136.60
2023-02-12T23:05:28.288Z,82.73
2023-02-12T23:07:58.718Z,101.07
2023-02-12T23:10:29.178Z,90.55
2023-02-12T23:12:59.595Z,88.10
2023-02-12T23:15:33.121Z,84.10
2023-02-12T23:18:03.468Z,97.97
2023-02-12T23:20:33.831Z,88.32
2023-02-12T23:23:04.156Z,90.83
2023-02-12T23:25:34.523Z,111.27
2023-02-12T23:28:04.919Z,76.60
2023-02-12T23:30:38.130Z,72.30
2023-02-12T23:33:09.599Z,88.60
2023-02-12T23:35:40.054Z,73.28
2023-02-12T23:38:10.523Z,78.85
2023-02-12T23:40:41.299Z,76.32
2023-02-12T23:43:12.029Z,65.55
2023-02-12T23:45:46.955Z,82.85
2023-02-12T23:48:18.220Z,72.82
2023-02-12T23:50:50.103Z,68.72
2023-02-12T23:53:20.741Z,65.30
2023-02-12T23:55:53.309Z,70.28
2023-02-12T23:58:23.598Z,66.20
